Time;durP1;ratioP1;P1;durP2;ratioP2;P2;SDS_P1;SDS_P2;PMS_P1;PMS_P2;Temp;Humidity;BMP_temperature;BMP_pressure;BME280_temperature;BME280_humidity;BME280_pressure;Samples;Min_cycle;Max_cycle;Signal;HPM_P1;HPM_P2
2023/07/12 00:00:44;;;;;;;3.80;1.90;;;21.00;73.00;;;;;;5030514;28;20065;-80
2023/07/12 00:03:12;;;;;;;5.00;2.20;;;21.00;73.00;;;;;;5031227;28;20510;-80
2023/07/12 00:05:39;;;;;;;5.18;1.80;;;21.00;73.10;;;;;;5029632;28;20277;-80
2023/07/12 00:08:09;;;;;;;5.25;2.10;;;20.90;73.20;;;;;;5029696;28;20057;-80
2023/07/12 00:10:37;;;;;;;4.07;1.88;;;20.90;73.30;;;;;;5028182;28;20148;-80
2023/07/12 00:13:04;;;;;;;4.40;1.90;;;20.90;73.40;;;;;;5013003;28;20074;-80
2023/07/12 00:15:33;;;;;;;5.00;1.87;;;20.80;73.50;;;;;;4996111;28;20099;-80
2023/07/12 00:18:02;;;;;;;3.85;1.77;;;20.80;73.60;;;;;;5030112;28;20270;-80
2023/07/12 00:20:32;;;;;;;4.13;1.70;;;20.80;73.70;;;;;;5028780;28;20050;-80
2023/07/12 00:23:01;;;;;;;3.97;1.80;;;20.70;73.80;;;;;;5028952;28;20057;-80
2023/07/12 00:25:31;;;;;;;4.70;1.80;;;20.60;73.90;;;;;;5027517;28;20181;-81
2023/07/12 00:27:58;;;;;;;3.77;1.77;;;20.60;74.00;;;;;;5028583;28;20050;-81
2023/07/12 00:30:28;;;;;;;4.00;1.55;;;20.60;74.10;;;;;;5045701;28;20295;-80
2023/07/12 00:32:57;;;;;;;4.43;1.90;;;20.50;74.20;;;;;;5012116;28;20471;-80
2023/07/12 00:35:27;;;;;;;4.53;1.80;;;20.50;74.30;;;;;;5029085;28;20076;-80
2023/07/12 00:37:56;;;;;;;4.22;1.70;;;20.50;74.40;;;;;;5030848;28;20513;-80
2023/07/12 00:41:06;;;;;;;4.30;1.70;;;20.50;74.50;;;;;;5011467;28;20494;-80
2023/07/12 00:43:39;;;;;;;3.70;1.65;;;20.40;74.40;;;;;;5012026;28;20656;-80
2023/07/12 00:46:14;;;;;;;4.20;1.98;;;20.40;74.70;;;;;;5027899;28;20523;-80
2023/07/12 00:48:41;;;;;;;3.65;1.73;;;20.30;74.80;;;;;;5012148;28;20053;-80
2023/07/12 00:51:36;;;;;;;5.30;1.85;;;20.30;75.00;;;;;;5028592;28;20054;-80
2023/07/12 00:54:11;;;;;;;4.90;2.00;;;20.30;75.00;;;;;;4998137;28;20082;-80
2023/07/12 00:56:39;;;;;;;5.72;1.90;;;20.30;75.20;;;;;;4991487;28;20278;-80
2023/07/12 00:59:10;;;;;;;4.00;1.60;;;20.30;75.20;;;;;;5019851;28;20146;-80
2023/07/12 01:01:38;;;;;;;4.38;1.75;;;20.20;75.40;;;;;;5010914;28;20046;-80
2023/07/12 01:04:06;;;;;;;4.25;2.22;;;20.20;75.60;;;;;;5027358;28;20133;-80
2023/07/12 01:06:34;;;;;;;4.37;2.00;;;20.10;75.80;;;;;;5028976;28;20121;-80
2023/07/12 01:09:08;;;;;;;4.50;2.00;;;20.10;75.90;;;;;;5012075;28;20258;-81
2023/07/12 01:11:35;;;;;;;4.22;1.90;;;20.10;76.00;;;;;;5010447;28;20486;-80
2023/07/12 01:14:02;;;;;;;4.57;2.10;;;20.10;76.00;;;;;;5025655;28;20136;-80
2023/07/12 01:16:30;;;;;;;4.80;1.95;;;20.00;76.30;;;;;;5010596;28;20050;-80
2023/07/12 01:18:57;;;;;;;5.47;2.37;;;20.00;76.30;;;;;;5020377;28;20058;-80
2023/07/12 01:21:27;;;;;;;3.65;1.92;;;20.00;76.70;;;;;;5011838;28;20336;-80
2023/07/12 01:23:54;;;;;;;4.78;2.20;;;20.00;76.70;;;;;;5028009;28;20118;-80
2023/07/12 01:26:26;;;;;;;4.95;2.30;;;20.00;76.80;;;;;;5011978;28;20129;-81
2023/07/12 01:28:55;;;;;;;6.60;2.47;;;20.00;77.00;;;;;;5029135;28;20058;-80
2023/07/12 01:31:24;;;;;;;6.23;2.67;;;19.90;76.90;;;;;;5028259;28;20118;-79
2023/07/12 01:33:51;;;;;;;6.65;2.40;;;19.80;77.00;;;;;;5009981;28;20277;-80
2023/07/12 01:36:19;;;;;;;5.28;2.10;;;19.80;77.10;;;;;;5010485;28;20603;-80
2023/07/12 01:38:49;;;;;;;5.07;2.30;;;19.80;77.30;;;;;;5015362;28;20054;-81
2023/07/12 01:41:16;;;;;;;5.55;2.50;;;19.70;77.30;;;;;;5026718;28;20057;-80
2023/07/12 01:43:44;;;;;;;4.60;2.33;;;19.70;77.40;;;;;;5006816;28;20053;-80
2023/07/12 01:46:10;;;;;;;6.18;2.10;;;19.70;77.20;;;;;;5026905;28;20344;-80
2023/07/12 01:48:38;;;;;;;5.47;2.03;;;19.70;77.30;;;;;;5028411;28;20599;-80
2023/07/12 01:51:05;;;;;;;4.88;2.13;;;19.60;77.20;;;;;;5028125;28;20602;-80
2023/07/12 01:53:33;;;;;;;4.60;2.15;;;19.50;77.10;;;;;;5028311;28;20487;-80
2023/07/12 01:56:02;;;;;;;6.10;2.10;;;19.50;77.10;;;;;;5030007;28;20061;-81
2023/07/12 01:58:29;;;;;;;5.18;2.00;;;19.50;77.20;;;;;;5011325;28;20312;-80
2023/07/12 02:00:57;;;;;;;4.15;2.00;;;19.50;77.10;;;;;;5011261;28;20050;-81
2023/07/12 02:03:25;;;;;;;4.38;1.98;;;19.40;77.20;;;;;;5028690;28;20076;-80
2023/07/12 02:05:52;;;;;;;7.07;2.40;;;19.40;77.40;;;;;;5009494;28;20520;-80
2023/07/12 02:08:19;;;;;;;5.57;2.37;;;19.30;77.30;;;;;;5011133;28;20085;-80
2023/07/12 02:10:47;;;;;;;3.95;2.22;;;19.30;77.30;;;;;;5027349;28;20314;-80
2023/07/12 02:13:16;;;;;;;6.93;2.33;;;19.20;77.80;;;;;;5028119;28;20528;-80
2023/07/12 02:15:44;;;;;;;5.32;2.40;;;19.20;78.00;;;;;;5028049;28;20428;-80
2023/07/12 02:18:13;;;;;;;5.47;2.53;;;19.20;78.00;;;;;;5011096;28;20057;-80
2023/07/12 02:20:40;;;;;;;5.13;2.60;;;19.20;78.10;;;;;;5029446;28;20050;-80
2023/07/12 02:23:08;;;;;;;6.53;2.17;;;19.10;78.30;;;;;;4999846;28;20813;-80
2023/07/12 02:25:35;;;;;;;6.70;2.50;;;19.20;78.30;;;;;;5031345;28;20548;-80
2023/07/12 02:28:05;;;;;;;4.20;1.85;;;19.10;78.20;;;;;;5014548;28;20089;-80
2023/07/12 02:30:33;;;;;;;5.63;2.33;;;19.10;78.10;;;;;;5032390;28;20053;-80
2023/07/12 02:33:01;;;;;;;7.30;2.47;;;19.00;78.20;;;;;;5043242;28;20462;-80
2023/07/12 02:35:30;;;;;;;7.35;2.20;;;19.00;78.20;;;;;;5030929;28;20762;-80
2023/07/12 02:37:57;;;;;;;7.38;2.13;;;18.90;78.10;;;;;;5030866;28;20050;-80
2023/07/12 02:40:26;;;;;;;5.22;1.63;;;18.80;78.10;;;;;;5029379;28;20169;-79
2023/07/12 02:42:54;;;;;;;5.82;2.08;;;18.80;78.20;;;;;;5031333;28;20594;-80
2023/07/12 02:45:21;;;;;;;5.50;2.00;;;18.70;78.20;;;;;;5030375;28;20050;-80
2023/07/12 02:47:49;;;;;;;6.63;2.35;;;18.60;78.30;;;;;;5032361;28;20806;-80
2023/07/12 02:50:16;;;;;;;9.48;2.35;;;18.60;78.40;;;;;;5031690;28;20100;-81
2023/07/12 02:52:44;;;;;;;5.35;2.25;;;18.60;78.50;;;;;;5031331;28;20573;-80
2023/07/12 02:55:11;;;;;;;5.13;1.83;;;18.60;78.50;;;;;;5030538;28;20056;-80
2023/07/12 02:57:37;;;;;;;5.47;2.03;;;18.60;78.50;;;;;;5029520;28;20475;-80
2023/07/12 03:00:06;;;;;;;7.05;2.20;;;18.60;78.70;;;;;;5031791;28;20281;-80
2023/07/12 03:02:33;;;;;;;5.20;1.60;;;18.50;78.80;;;;;;5030673;28;20478;-80
2023/07/12 03:05:02;;;;;;;5.45;2.08;;;18.40;79.20;;;;;;5030602;28;20531;-80
2023/07/12 03:07:28;;;;;;;5.72;1.98;;;18.40;79.10;;;;;;5030013;28;20045;-80
2023/07/12 03:09:57;;;;;;;6.43;2.03;;;18.40;79.20;;;;;;5030174;28;20077;-80
2023/07/12 03:12:24;;;;;;;6.53;2.25;;;18.40;79.10;;;;;;5014094;28;20265;-80
2023/07/12 03:14:51;;;;;;;7.15;2.40;;;18.40;79.30;;;;;;5029540;28;20054;-80
2023/07/12 03:17:18;;;;;;;6.15;2.42;;;18.40;79.30;;;;;;5030502;28;20073;-80
2023/07/12 03:19:45;;;;;;;9.23;2.53;;;18.40;79.40;;;;;;5026777;28;20061;-80
2023/07/12 03:22:13;;;;;;;8.90;2.87;;;18.40;79.70;;;;;;5010980;28;20643;-80
2023/07/12 03:24:40;;;;;;;6.38;2.40;;;18.40;79.70;;;;;;5027839;28;20260;-80
2023/07/12 03:27:07;;;;;;;7.32;3.03;;;18.40;79.60;;;;;;5014373;28;20058;-80
2023/07/12 03:29:34;;;;;;;7.70;3.25;;;18.40;79.80;;;;;;5031450;28;20053;-80
2023/07/12 03:32:01;;;;;;;9.05;3.40;;;18.40;79.90;;;;;;5028126;28;20060;-80
2023/07/12 03:34:31;;;;;;;6.20;2.87;;;18.40;80.30;;;;;;5031193;28;20133;-80
2023/07/12 03:36:58;;;;;;;8.55;3.72;;;18.40;80.40;;;;;;5031589;28;20250;-80
2023/07/12 03:39:26;;;;;;;7.55;3.20;;;18.40;80.30;;;;;;5030080;28;20135;-80
2023/07/12 03:41:53;;;;;;;8.48;3.30;;;18.40;80.40;;;;;;5031114;28;20054;-80
2023/07/12 03:44:20;;;;;;;8.18;2.78;;;18.40;80.60;;;;;;5031075;28;20054;-80
2023/07/12 03:46:47;;;;;;;7.90;2.90;;;18.40;80.50;;;;;;5030338;28;20132;-80
2023/07/12 03:49:14;;;;;;;8.10;2.60;;;18.40;80.50;;;;;;5030766;28;20850;-81
2023/07/12 03:51:41;;;;;;;8.35;3.03;;;18.30;80.30;;;;;;5028587;28;20495;-81
2023/07/12 03:54:07;;;;;;;6.65;2.60;;;18.30;80.50;;;;;;5027415;28;20133;-80
2023/07/12 03:56:36;;;;;;;9.13;3.17;;;18.30;80.40;;;;;;5029783;28;20042;-80
2023/07/12 03:59:03;;;;;;;10.00;3.30;;;18.30;80.40;;;;;;5030567;28;20144;-80
2023/07/12 04:01:31;;;;;;;7.70;2.75;;;18.30;80.60;;;;;;5029084;28;20264;-80
2023/07/12 04:03:58;;;;;;;11.30;3.17;;;18.20;80.50;;;;;;5013014;28;20435;-80
2023/07/12 04:06:25;;;;;;;9.07;3.08;;;18.20;80.60;;;;;;5029185;28;20508;-81
2023/07/12 04:08:52;;;;;;;8.43;3.17;;;18.20;80.60;;;;;;5019396;28;20057;-80
2023/07/12 04:11:25;;;;;;;10.23;3.00;;;18.20;80.50;;;;;;5029064;28;20045;-80
2023/07/12 04:13:54;;;;;;;9.85;3.00;;;18.20;80.60;;;;;;5029451;28;20281;-79
2023/07/12 04:16:21;;;;;;;10.63;3.22;;;18.10;80.50;;;;;;5027529;28;20503;-80
2023/07/12 04:18:48;;;;;;;8.73;2.80;;;18.10;80.70;;;;;;5030873;28;20213;-80
2023/07/12 04:21:15;;;;;;;7.35;2.72;;;18.10;80.60;;;;;;5029878;28;20058;-80
2023/07/12 04:23:42;;;;;;;9.23;3.50;;;18.00;80.70;;;;;;5029197;28;20050;-80
2023/07/12 04:26:10;;;;;;;9.18;2.97;;;18.00;80.80;;;;;;5027654;28;21007;-80
2023/07/12 04:28:39;;;;;;;9.35;3.50;;;18.00;81.10;;;;;;5012260;28;20157;-80
2023/07/12 04:31:11;;;;;;;10.77;3.30;;;18.00;81.10;;;;;;5027076;28;20669;-80
2023/07/12 04:33:38;;;;;;;8.80;3.20;;;18.00;81.10;;;;;;5027798;28;20567;-81
2023/07/12 04:36:06;;;;;;;8.07;3.00;;;17.90;81.30;;;;;;5028357;28;20050;-81
2023/07/12 04:38:33;;;;;;;9.20;3.47;;;17.90;81.50;;;;;;5030047;28;20344;-80
2023/07/12 04:41:01;;;;;;;10.43;3.42;;;17.80;81.50;;;;;;5029005;28;20050;-80
2023/07/12 04:43:28;;;;;;;9.63;3.38;;;17.80;81.60;;;;;;5027648;28;20100;-80
2023/07/12 04:45:55;;;;;;;9.85;3.50;;;17.80;81.80;;;;;;5030081;28;20058;-80
2023/07/12 04:48:24;;;;;;;10.80;3.40;;;17.80;81.90;;;;;;5028524;28;20050;-80
2023/07/12 04:50:51;;;;;;;8.85;3.60;;;17.80;82.20;;;;;;5008755;28;20255;-80
2023/07/12 04:53:20;;;;;;;9.30;3.33;;;17.80;81.90;;;;;;5012711;28;20088;-80
2023/07/12 04:55:50;;;;;;;12.80;3.78;;;17.80;82.20;;;;;;5029102;28;20487;-80
2023/07/12 04:58:18;;;;;;;9.57;3.80;;;17.80;82.30;;;;;;5030542;28;20593;-80
2023/07/12 05:00:45;;;;;;;10.50;3.60;;;17.80;82.50;;;;;;5028809;28;20132;-80
2023/07/12 05:03:15;;;;;;;8.65;3.30;;;17.80;82.60;;;;;;5012479;28;20265;-80
2023/07/12 05:05:44;;;;;;;10.15;3.10;;;17.80;82.40;;;;;;5028618;28;20591;-80
2023/07/12 05:08:11;;;;;;;9.63;3.70;;;17.80;82.70;;;;;;5028681;28;20064;-80
2023/07/12 05:10:38;;;;;;;9.15;3.60;;;17.80;82.70;;;;;;5029760;28;20054;-80
2023/07/12 05:13:06;;;;;;;10.57;3.60;;;17.80;82.90;;;;;;5006217;28;20134;-80
2023/07/12 05:15:33;;;;;;;8.02;2.72;;;17.70;82.80;;;;;;5010363;28;20309;-80
2023/07/12 05:18:00;;;;;;;10.60;3.40;;;17.70;82.70;;;;;;5022096;28;20050;-81
2023/07/12 05:20:27;;;;;;;9.27;3.40;;;17.70;83.00;;;;;;5027547;28;20496;-78
2023/07/12 05:22:55;;;;;;;10.50;3.80;;;17.70;83.00;;;;;;5008710;28;20073;-78
2023/07/12 05:25:22;;;;;;;10.27;3.73;;;17.70;83.10;;;;;;5008229;28;20666;-78
2023/07/12 05:27:49;;;;;;;8.73;3.67;;;17.70;83.00;;;;;;5033771;28;20273;-78
2023/07/12 05:30:16;;;;;;;11.68;4.10;;;17.80;83.50;;;;;;5039120;28;20053;-79
2023/07/12 05:32:43;;;;;;;10.32;4.15;;;17.80;83.30;;;;;;5036903;28;20578;-79
2023/07/12 05:35:10;;;;;;;11.50;4.43;;;17.80;83.30;;;;;;5035106;28;20554;-78
2023/07/12 05:37:37;;;;;;;11.87;4.60;;;17.80;83.30;;;;;;5034209;28;20057;-79
2023/07/12 05:40:09;;;;;;;9.23;4.40;;;17.80;83.60;;;;;;5035896;28;20281;-78
2023/07/12 05:42:40;;;;;;;10.25;4.28;;;17.80;83.30;;;;;;5032407;28;20045;-78
2023/07/12 05:45:08;;;;;;;13.70;5.18;;;17.80;83.50;;;;;;5036434;28;20050;-78
2023/07/12 05:47:35;;;;;;;12.88;5.43;;;17.80;83.50;;;;;;5034111;28;20056;-79
2023/07/12 05:50:03;;;;;;;13.43;5.03;;;17.80;83.50;;;;;;5018543;28;20050;-78
2023/07/12 05:52:29;;;;;;;14.15;5.35;;;17.80;83.40;;;;;;5037871;28;20260;-78
2023/07/12 05:54:56;;;;;;;10.98;4.57;;;17.80;83.60;;;;;;5035935;28;20550;-78
2023/07/12 05:57:25;;;;;;;12.02;4.78;;;17.80;83.50;;;;;;5026545;28;20132;-78
2023/07/12 05:59:52;;;;;;;13.45;4.65;;;17.80;83.60;;;;;;5019561;28;20077;-79
2023/07/12 06:02:19;;;;;;;13.40;5.43;;;17.80;83.70;;;;;;5021832;28;20056;-79
2023/07/12 06:04:46;;;;;;;13.35;5.30;;;17.80;83.70;;;;;;5018320;28;20278;-80
2023/07/12 06:07:13;;;;;;;13.90;5.53;;;17.80;83.50;;;;;;5018418;28;20116;-78
2023/07/12 06:09:39;;;;;;;15.63;5.40;;;17.80;83.80;;;;;;5020339;28;20046;-80
2023/07/12 06:12:07;;;;;;;15.00;4.97;;;17.80;83.50;;;;;;5019172;28;20054;-78
2023/07/12 06:14:36;;;;;;;11.70;5.37;;;17.80;83.00;;;;;;5018670;28;20447;-79
2023/07/12 06:17:03;;;;;;;13.05;5.57;;;17.80;83.30;;;;;;5018069;28;20358;-81
2023/07/12 06:19:30;;;;;;;13.00;5.13;;;17.80;83.40;;;;;;5016756;28;20530;-80
2023/07/12 06:21:57;;;;;;;12.57;5.88;;;17.80;83.40;;;;;;5019122;28;20495;-79
2023/07/12 06:24:24;;;;;;;12.35;5.55;;;17.80;83.50;;;;;;5022894;28;20050;-79
2023/07/12 06:26:51;;;;;;;12.07;5.70;;;17.80;83.50;;;;;;5021659;28;20579;-78
2023/07/12 06:29:18;;;;;;;11.63;5.63;;;17.80;83.50;;;;;;5021280;28;20261;-80
2023/07/12 06:31:47;;;;;;;10.95;5.68;;;17.80;83.60;;;;;;5016565;28;20117;-78
2023/07/12 06:34:14;;;;;;;12.88;5.63;;;17.90;83.40;;;;;;5027339;28;20474;-79
2023/07/12 06:36:41;;;;;;;13.65;5.82;;;17.90;83.20;;;;;;5028666;28;20060;-80
2023/07/12 06:39:08;;;;;;;14.50;6.30;;;17.90;83.00;;;;;;5024544;28;20061;-79
2023/07/12 06:41:34;;;;;;;12.77;5.60;;;18.00;83.00;;;;;;5019201;28;20352;-79
2023/07/12 06:44:01;;;;;;;14.30;6.10;;;18.00;82.70;;;;;;5026100;28;20054;-80
2023/07/12 06:46:28;;;;;;;11.60;5.90;;;18.00;82.80;;;;;;5027374;28;20638;-79
2023/07/12 06:48:56;;;;;;;12.52;6.47;;;18.00;82.60;;;;;;5026929;28;20049;-81
2023/07/12 06:51:23;;;;;;;14.30;6.80;;;18.00;82.60;;;;;;5024708;28;20050;-79
2023/07/12 06:53:50;;;;;;;15.25;6.50;;;18.00;82.40;;;;;;5029684;28;20282;-77
2023/07/12 06:56:17;;;;;;;10.68;4.90;;;18.00;82.20;;;;;;5028834;28;20054;-77
2023/07/12 06:58:44;;;;;;;13.00;6.22;;;18.00;82.50;;;;;;5027426;28;20057;-78
2023/07/12 07:01:11;;;;;;;11.80;6.25;;;18.00;82.50;;;;;;5021733;28;20053;-78
2023/07/12 07:03:38;;;;;;;15.40;6.80;;;18.00;82.50;;;;;;5025368;28;20133;-80
2023/07/12 07:06:06;;;;;;;11.80;6.50;;;18.10;82.60;;;;;;5027033;28;20287;-80
2023/07/12 07:08:33;;;;;;;14.20;6.28;;;18.10;81.90;;;;;;5027951;28;20046;-79
2023/07/12 07:11:02;;;;;;;9.60;4.57;;;18.10;81.60;;;;;;5026965;28;20050;-79
2023/07/12 07:13:29;;;;;;;11.10;5.53;;;18.10;81.30;;;;;;5028606;28;20050;-80
2023/07/12 07:15:56;;;;;;;14.50;5.60;;;18.10;81.50;;;;;;5028897;28;20526;-80
2023/07/12 07:18:24;;;;;;;12.02;5.15;;;18.20;81.00;;;;;;5029381;28;20329;-79
2023/07/12 07:20:52;;;;;;;13.45;5.10;;;18.20;80.90;;;;;;5024869;28;20114;-80
2023/07/12 07:23:20;;;;;;;13.23;5.82;;;18.20;80.70;;;;;;5022761;28;20085;-80
2023/07/12 07:25:47;;;;;;;13.15;6.20;;;18.30;80.60;;;;;;5022630;28;20923;-79
2023/07/12 07:28:14;;;;;;;12.57;6.10;;;18.30;80.10;;;;;;5037089;28;20164;-79
2023/07/12 07:30:42;;;;;;;13.65;6.05;;;18.30;80.20;;;;;;5035872;28;20702;-79
2023/07/12 07:33:09;;;;;;;13.65;6.57;;;18.30;80.30;;;;;;5031379;28;20617;-79
2023/07/12 07:35:36;;;;;;;12.90;6.72;;;18.30;80.30;;;;;;5030387;28;20161;-79
2023/07/12 07:38:03;;;;;;;10.60;6.32;;;18.30;80.20;;;;;;5013330;28;20053;-79
2023/07/12 07:40:31;;;;;;;11.80;5.50;;;18.40;80.50;;;;;;5028638;28;20058;-78
2023/07/12 07:42:58;;;;;;;12.05;5.20;;;18.50;78.90;;;;;;5019463;28;20250;-78
2023/07/12 07:45:25;;;;;;;11.27;5.20;;;18.50;79.00;;;;;;5030230;28;20055;-79
2023/07/12 07:47:52;;;;;;;13.18;6.15;;;18.50;79.40;;;;;;5021765;28;20463;-78
2023/07/12 07:50:20;;;;;;;14.27;5.93;;;18.50;79.60;;;;;;5019051;28;20125;-78
2023/07/12 07:52:47;;;;;;;12.17;4.60;;;18.50;79.20;;;;;;5014398;28;20567;-78
2023/07/12 07:55:15;;;;;;;13.88;5.70;;;18.60;79.20;;;;;;5009343;28;20293;-79
2023/07/12 07:57:43;;;;;;;13.25;5.63;;;18.60;79.20;;;;;;5038390;28;20060;-78
2023/07/12 08:00:13;;;;;;;11.57;6.18;;;18.60;79.00;;;;;;5029972;28;20054;-78
2023/07/12 08:02:42;;;;;;;12.02;5.88;;;18.60;79.20;;;;;;5031633;28;20073;-78
2023/07/12 08:05:09;;;;;;;11.93;6.23;;;18.70;79.20;;;;;;5034126;28;20045;-79
2023/07/12 08:07:41;;;;;;;10.73;5.45;;;18.70;79.40;;;;;;5021046;28;21529;-79
2023/07/12 08:10:14;;;;;;;10.70;4.13;;;18.80;79.20;;;;;;5017540;28;20432;-78
2023/07/12 08:12:42;;;;;;;8.73;3.35;;;18.90;78.20;;;;;;5009627;28;20390;-78
2023/07/12 08:15:10;;;;;;;10.38;4.78;;;19.00;77.80;;;;;;5031786;28;20056;-78
2023/07/12 08:17:38;;;;;;;12.70;5.90;;;19.00;78.00;;;;;;5012827;28;20046;-77
2023/07/12 08:20:06;;;;;;;11.75;5.22;;;19.10;77.80;;;;;;5030290;28;20277;-78
2023/07/12 08:22:33;;;;;;;11.48;5.32;;;19.10;76.90;;;;;;5026367;28;20052;-78
2023/07/12 08:25:00;;;;;;;14.00;5.82;;;19.20;77.00;;;;;;5028950;28;20492;-78
2023/07/12 08:27:28;;;;;;;14.35;5.85;;;19.20;76.90;;;;;;5029130;28;20057;-78
2023/07/12 08:29:58;;;;;;;12.20;5.40;;;19.20;76.80;;;;;;5029699;28;20149;-78
2023/07/12 08:32:27;;;;;;;17.67;5.35;;;19.30;76.00;;;;;;5027313;28;20767;-79
2023/07/12 08:34:55;;;;;;;12.25;5.75;;;19.30;75.50;;;;;;5027771;28;20061;-78
2023/07/12 08:37:22;;;;;;;12.98;5.55;;;19.30;75.70;;;;;;5025687;28;20128;-79
2023/07/12 08:39:49;;;;;;;11.75;5.65;;;19.30;76.20;;;;;;5025110;28;20105;-80
2023/07/12 08:42:21;;;;;;;9.37;4.17;;;19.40;75.80;;;;;;5019452;28;20046;-81
2023/07/12 08:44:48;;;;;;;11.60;5.82;;;19.40;75.10;;;;;;5039353;28;20273;-80
2023/07/12 08:47:21;;;;;;;10.93;5.22;;;19.40;74.90;;;;;;5021646;28;20112;-81
2023/07/12 08:49:49;;;;;;;15.65;6.22;;;19.40;75.00;;;;;;5022054;28;20140;-80
2023/07/12 08:52:18;;;;;;;14.13;4.47;;;19.40;75.40;;;;;;5023880;28;20569;-81
2023/07/12 08:54:48;;;;;;;11.77;4.50;;;19.40;76.50;;;;;;5006161;28;20368;-81
2023/07/12 08:57:18;;;;;;;8.27;4.25;;;19.30;76.70;;;;;;5014015;28;20356;-82
2023/07/12 08:59:52;;;;;;;11.35;4.85;;;19.20;77.10;;;;;;5012548;28;20754;-81
2023/07/12 09:02:23;;;;;;;12.13;5.50;;;19.10;77.40;;;;;;5006976;28;20096;-82
2023/07/12 09:04:51;;;;;;;9.63;5.00;;;19.00;78.20;;;;;;5019964;28;20069;-80
2023/07/12 09:07:24;;;;;;;11.77;6.03;;;18.90;79.00;;;;;;5015826;28;20049;-81
2023/07/12 09:09:51;;;;;;;11.43;6.03;;;18.90;79.20;;;;;;5025444;28;20989;-81
2023/07/12 09:12:28;;;;;;;9.55;5.45;;;18.90;79.50;;;;;;5032661;28;20049;-81
2023/07/12 09:14:58;;;;;;;11.10;5.60;;;18.90;80.20;;;;;;5032447;28;20096;-81
2023/07/12 09:17:31;;;;;;;12.95;5.90;;;18.90;80.20;;;;;;5034113;28;20134;-80
2023/07/12 09:19:58;;;;;;;14.00;5.37;;;18.90;80.60;;;;;;5034045;28;20039;-81
2023/07/12 09:22:29;;;;;;;9.05;4.75;;;18.90;80.60;;;;;;5031418;28;20261;-80
2023/07/12 09:24:57;;;;;;;12.20;4.78;;;18.90;80.80;;;;;;5031745;28;20049;-80
2023/07/12 09:27:26;;;;;;;10.60;4.90;;;18.90;81.00;;;;;;5031401;28;20054;-81
2023/07/12 09:30:00;;;;;;;9.27;4.40;;;18.90;81.00;;;;;;5008079;28;20594;-80
2023/07/12 09:32:33;;;;;;;10.30;4.20;;;18.90;80.80;;;;;;5026282;28;20476;-80
2023/07/12 09:35:01;;;;;;;8.98;3.72;;;19.00;80.90;;;;;;5029237;28;20281;-78
2023/07/12 09:37:28;;;;;;;11.25;4.60;;;19.00;81.00;;;;;;5024833;28;20042;-79
2023/07/12 09:39:57;;;;;;;12.38;4.53;;;19.00;81.10;;;;;;5023948;28;20060;-82
2023/07/12 09:42:25;;;;;;;10.98;4.15;;;19.10;80.30;;;;;;5008819;28;20052;-82
2023/07/12 09:44:53;;;;;;;10.23;3.93;;;19.20;80.20;;;;;;5018316;28;20893;-79
2023/07/12 09:47:35;;;;;;;10.40;3.90;;;19.30;79.70;;;;;;5024703;28;20269;-82
2023/07/12 09:50:14;;;;;;;8.63;3.72;;;19.40;79.60;;;;;;5020401;28;20582;-84
2023/07/12 09:53:04;;;;;;;8.05;3.08;;;19.40;79.30;;;;;;5002200;28;20509;-84
2023/07/12 09:55:39;;;;;;;6.30;2.25;;;19.50;78.90;;;;;;5022604;28;20128;-82
2023/07/12 09:58:15;;;;;;;6.57;2.10;;;19.50;77.40;;;;;;5026918;28;20061;-80
2023/07/12 10:00:56;;;;;;;6.10;1.60;;;19.40;76.60;;;;;;5016323;28;20385;-79
2023/07/12 10:03:27;;;;;;;3.45;1.20;;;19.40;75.90;;;;;;5037115;28;20172;-80
2023/07/12 10:06:03;;;;;;;8.10;2.63;;;19.30;76.50;;;;;;5021966;28;20085;-80
2023/07/12 10:08:41;;;;;;;7.88;2.25;;;19.20;76.40;;;;;;5024748;28;20054;-80
2023/07/12 10:11:16;;;;;;;5.97;2.33;;;19.10;76.90;;;;;;5009099;28;20172;-80
2023/07/12 10:13:47;;;;;;;8.43;3.03;;;19.00;77.20;;;;;;5009487;28;20336;-80
2023/07/12 10:16:18;;;;;;;7.25;3.22;;;19.00;77.60;;;;;;5025528;28;20076;-80
2023/07/12 10:18:48;;;;;;;6.97;1.90;;;19.00;77.80;;;;;;5024712;28;20045;-80
2023/07/12 10:21:19;;;;;;;9.63;3.20;;;19.00;77.00;;;;;;5026504;28;20506;-81
2023/07/12 10:23:50;;;;;;;9.20;3.30;;;19.00;77.20;;;;;;5011233;28;20137;-79
2023/07/12 10:26:18;;;;;;;7.90;3.17;;;19.00;77.70;;;;;;5003174;28;20380;-79
2023/07/12 10:28:51;;;;;;;8.13;2.97;;;19.00;79.20;;;;;;5025742;28;20058;-80
2023/07/12 10:31:34;;;;;;;6.38;2.88;;;19.10;78.70;;;;;;5027060;28;20049;-80
2023/07/12 10:34:24;;;;;;;9.75;2.47;;;19.20;78.70;;;;;;5023490;28;20062;-79
2023/07/12 10:36:53;;;;;;;5.97;2.20;;;19.30;78.00;;;;;;5018286;28;20060;-79
2023/07/12 10:39:20;;;;;;;5.80;1.80;;;19.40;78.10;;;;;;5024246;28;20249;-79
2023/07/12 10:41:50;;;;;;;4.60;2.10;;;19.50;77.60;;;;;;5029245;28;20064;-77
2023/07/12 10:44:20;;;;;;;4.78;1.83;;;19.60;75.40;;;;;;5012462;28;20112;-77
2023/07/12 10:46:52;;;;;;;5.75;2.53;;;19.70;74.60;;;;;;5028352;28;20137;-77
2023/07/12 10:49:37;;;;;;;6.50;2.37;;;19.70;74.30;;;;;;5028850;28;20045;-77
2023/07/12 10:52:15;;;;;;;4.78;1.70;;;19.90;74.10;;;;;;5029958;28;20833;-77
2023/07/12 10:54:51;;;;;;;9.35;1.63;;;20.00;74.70;;;;;;5022484;28;20058;-77
2023/07/12 10:57:28;;;;;;;6.07;2.20;;;20.00;72.60;;;;;;5026815;28;20452;-77
2023/07/12 11:00:06;;;;;;;6.70;2.35;;;20.10;71.70;;;;;;5022581;28;20408;-78
2023/07/12 11:02:43;;;;;;;5.93;2.30;;;20.10;72.80;;;;;;5027006;28;20057;-77
2023/07/12 11:05:40;;;;;;;8.10;2.55;;;20.10;73.30;;;;;;5012275;28;20694;-77
2023/07/12 11:08:36;;;;;;;4.88;1.88;;;20.20;72.10;;;;;;5030679;28;20141;-77
2023/07/12 11:11:45;;;;;;;5.60;2.30;;;20.30;71.50;;;;;;5027511;28;20112;-78
2023/07/12 11:14:26;;;;;;;7.72;2.40;;;20.30;71.00;;;;;;5025484;28;20061;-78
2023/07/12 11:17:12;;;;;;;7.40;2.80;;;20.30;70.70;;;;;;5026215;28;20414;-78
2023/07/12 11:20:06;;;;;;;5.85;2.28;;;20.30;72.30;;;;;;5005604;28;20825;-78
2023/07/12 11:22:52;;;;;;;5.07;2.15;;;20.20;70.20;;;;;;5028449;28;20139;-78
2023/07/12 11:25:57;;;;;;;5.32;1.90;;;20.30;70.40;;;;;;5029376;28;20133;-79
2023/07/12 11:28:39;;;;;;;5.53;1.90;;;20.30;69.90;;;;;;5030343;28;20535;-80
2023/07/12 11:31:32;;;;;;;6.67;1.97;;;20.30;70.00;;;;;;5029552;28;20065;-77
2023/07/12 11:34:11;;;;;;;3.10;1.40;;;20.40;69.80;;;;;;5021390;28;20749;-76
2023/07/12 11:36:39;;;;;;;5.72;1.90;;;20.50;68.60;;;;;;5028284;28;20061;-76
2023/07/12 11:39:15;;;;;;;5.53;1.40;;;20.50;68.50;;;;;;5011988;28;20042;-78
2023/07/12 11:41:54;;;;;;;5.72;1.70;;;20.60;66.50;;;;;;5027096;28;20064;-77
2023/07/12 11:44:21;;;;;;;5.43;2.00;;;20.60;67.00;;;;;;5029928;28;20136;-79
2023/07/12 11:46:51;;;;;;;6.45;2.42;;;20.70;67.30;;;;;;5025692;28;20337;-78
2023/07/12 11:49:20;;;;;;;4.05;1.35;;;20.70;67.50;;;;;;5026007;28;20108;-77
2023/07/12 11:51:52;;;;;;;4.82;1.45;;;20.80;66.60;;;;;;5020060;28;20061;-77
2023/07/12 11:54:23;;;;;;;4.10;1.42;;;20.90;65.60;;;;;;5025177;28;20049;-78
2023/07/12 11:56:51;;;;;;;4.77;1.40;;;20.90;64.90;;;;;;5029288;28;20145;-78
2023/07/12 11:59:21;;;;;;;5.32;1.73;;;20.90;64.40;;;;;;5029248;28;20431;-78
2023/07/12 12:01:50;;;;;;;2.90;1.20;;;20.90;64.00;;;;;;5027488;28;20079;-76
2023/07/12 12:04:21;;;;;;;3.65;1.50;;;20.90;63.90;;;;;;5030301;28;20058;-79
2023/07/12 12:06:49;;;;;;;4.63;1.50;;;20.80;64.00;;;;;;5029466;28;20053;-78
2023/07/12 12:09:16;;;;;;;3.87;1.03;;;20.80;65.20;;;;;;5033074;28;20061;-78
2023/07/12 12:11:45;;;;;;;3.92;1.48;;;20.90;65.60;;;;;;5007923;28;20321;-79
2023/07/12 12:14:22;;;;;;;5.18;1.70;;;20.90;64.80;;;;;;5027738;28;20101;-80
2023/07/12 12:16:52;;;;;;;6.57;1.80;;;21.00;64.80;;;;;;5028713;28;20523;-78
2023/07/12 12:19:20;;;;;;;4.15;1.63;;;21.00;64.60;;;;;;5024272;28;20064;-79
2023/07/12 12:21:48;;;;;;;4.70;1.70;;;21.10;65.00;;;;;;5028189;28;20058;-79
2023/07/12 12:24:18;;;;;;;4.63;1.30;;;21.10;64.10;;;;;;5028292;28;20245;-81
2023/07/12 12:26:48;;;;;;;3.80;1.00;;;21.10;62.60;;;;;;5028109;28;20050;-79
2023/07/12 12:29:18;;;;;;;4.13;1.02;;;21.10;62.10;;;;;;5027953;28;20149;-79
2023/07/12 12:31:52;;;;;;;5.18;1.17;;;21.00;63.30;;;;;;5024152;28;20388;-80
2023/07/12 12:34:21;;;;;;;3.90;1.20;;;21.00;63.10;;;;;;5044423;28;20053;-80
2023/07/12 12:36:58;;;;;;;4.35;1.42;;;21.00;62.70;;;;;;5019764;28;20743;-80
2023/07/12 12:39:26;;;;;;;4.32;0.88;;;21.00;61.30;;;;;;5036488;28;20128;-80
2023/07/12 12:41:58;;;;;;;6.95;1.25;;;21.00;62.10;;;;;;5036066;28;20058;-79
2023/07/12 12:44:29;;;;;;;3.67;1.20;;;21.00;62.10;;;;;;5034459;28;20045;-79
2023/07/12 12:46:58;;;;;;;3.43;1.03;;;21.00;62.20;;;;;;5045919;28;20137;-78
2023/07/12 12:49:27;;;;;;;3.00;0.90;;;21.00;61.10;;;;;;5017098;28;20745;-78
2023/07/12 12:51:56;;;;;;;3.88;0.90;;;21.00;60.80;;;;;;5018915;28;20042;-77
2023/07/12 12:54:24;;;;;;;4.95;1.30;;;20.90;61.20;;;;;;5023872;28;20524;-77
2023/07/12 12:56:52;;;;;;;3.72;1.23;;;20.90;60.40;;;;;;5037690;28;20061;-78